createdAt,value
2022-07-29T00:04:08.827Z,93.63
2022-07-29T00:09:12.839Z,95.38
2022-07-29T00:14:17.135Z,92.85
2022-07-29T00:19:22.581Z,90.42
2022-07-29T00:24:26.905Z,91.62
2022-07-29T00:29:34.097Z,91.08
2022-07-29T00:34:57.066Z,87.70
2022-07-29T00:40:01.893Z,92.24
2022-07-29T00:45:06.668Z,92.04
2022-07-29T00:50:13.579Z,93.43
2022-07-29T00:55:18.753Z,91.17
2022-07-29T01:00:24.754Z,89.13
2022-07-29T01:05:49.814Z,87.07
2022-07-29T01:10:56.362Z,91.32
2022-07-29T01:16:05.278Z,92.68
2022-07-29T01:21:29.987Z,90.49
2022-07-29T01:26:43.422Z,91.65
2022-07-29T01:31:59.047Z,94.79
2022-07-29T01:37:11.605Z,95.30
2022-07-29T01:42:22.888Z,95.18
2022-07-29T01:47:35.689Z,94.74
2022-07-29T01:52:44.945Z,95.06
2022-07-29T01:57:51.875Z,92.90
2022-07-29T02:02:59.333Z,93.88
2022-07-29T02:08:04.352Z,94.08
2022-07-29T02:13:09.575Z,93.77
2022-07-29T02:18:18.204Z,91.90
2022-07-29T02:23:24.371Z,93.30
2022-07-29T02:28:30.659Z,94.38
2022-07-29T02:33:37.122Z,94.70
2022-07-29T02:38:52.657Z,91.28
2022-07-29T02:43:59.286Z,88.60
2022-07-29T02:49:12.159Z,87.93
2022-07-29T02:54:27.821Z,90.61
2022-07-29T02:59:36.968Z,92.55
2022-07-29T03:04:45.594Z,92.96
2022-07-29T03:09:51.093Z,88.83
2022-07-29T03:14:55.654Z,90.15
2022-07-29T03:20:01.530Z,88.37
2022-07-29T03:25:10.365Z,89.35
2022-07-29T03:30:21.736Z,88.25
2022-07-29T03:35:27.805Z,93.24
2022-07-29T03:40:36.268Z,92.26
2022-07-29T03:45:43.175Z,90.05
2022-07-29T03:50:48.629Z,92.10
2022-07-29T03:55:56.071Z,89.23
2022-07-29T04:01:00.548Z,86.30
2022-07-29T04:06:07.736Z,84.08
2022-07-29T04:11:11.691Z,84.74
2022-07-29T04:16:15.563Z,83.77
2022-07-29T04:21:20.754Z,78.69
2022-07-29T04:26:24.473Z,78.19
2022-07-29T04:31:28.504Z,78.84
2022-07-29T04:36:33.615Z,76.31
2022-07-29T04:41:38.099Z,82.26
2022-07-29T04:46:41.883Z,76.67
2022-07-29T04:51:46.948Z,82.17
2022-07-29T04:56:50.860Z,81.44
2022-07-29T05:01:54.698Z,76.79
2022-07-29T05:07:00.572Z,75.01
2022-07-29T05:12:04.460Z,72.16
2022-07-29T05:17:08.863Z,73.41
2022-07-29T05:22:14.066Z,70.63
2022-07-29T05:27:18.000Z,73.75
2022-07-29T05:32:21.746Z,72.17
2022-07-29T05:37:26.753Z,68.96
2022-07-29T05:42:30.371Z,66.75
2022-07-29T05:47:34.473Z,65.83
2022-07-29T05:52:40.518Z,69.61
2022-07-29T05:57:44.531Z,71.59
2022-07-29T06:02:48.165Z,67.80
2022-07-29T06:07:54.233Z,66.43
2022-07-29T06:12:58.019Z,69.46
2022-07-29T06:18:02.479Z,67.84
2022-07-29T06:23:08.997Z,66.80
2022-07-29T06:28:13.717Z,65.57
2022-07-29T06:33:21.407Z,62.60
2022-07-29T06:38:31.360Z,61.50
2022-07-29T06:43:45.614Z,60.77
2022-07-29T06:48:54.964Z,62.93
2022-07-29T06:54:03.381Z,59.24
2022-07-29T06:59:09.446Z,61.61
2022-07-29T07:04:14.553Z,63.65
2022-07-29T07:09:20.549Z,65.46
2022-07-29T07:14:24.497Z,66.47
2022-07-29T07:19:28.542Z,65.35
2022-07-29T07:24:34.112Z,62.04
2022-07-29T07:29:38.138Z,61.45
2022-07-29T07:34:42.078Z,67.11
2022-07-29T07:39:47.662Z,63.59
2022-07-29T07:45:12.498Z,66.43
2022-07-29T07:50:18.883Z,65.55
2022-07-29T07:55:24.758Z,62.63
2022-07-29T08:00:28.408Z,59.84
2022-07-29T08:05:33.462Z,61.20
2022-07-29T08:10:56.923Z,60.00
2022-07-29T08:16:02.850Z,60.17
2022-07-29T08:21:07.388Z,57.94
2022-07-29T08:26:14.179Z,57.90
2022-07-29T08:31:19.189Z,55.26
2022-07-29T08:36:23.271Z,57.59
2022-07-29T08:41:29.169Z,56.94
2022-07-29T08:46:33.103Z,54.91
2022-07-29T08:51:47.101Z,58.18
2022-07-29T08:56:55.651Z,57.40
2022-07-29T09:02:01.848Z,54.51
2022-07-29T09:07:08.519Z,53.92
2022-07-29T09:12:29.350Z,51.59
2022-07-29T09:17:44.751Z,54.69
2022-07-29T09:22:50.492Z,56.10
2022-07-29T09:27:55.816Z,56.21
2022-07-29T09:33:02.446Z,53.96
2022-07-29T09:38:13.764Z,54.48
2022-07-29T09:43:19.229Z,54.93
2022-07-29T09:48:25.755Z,53.96
2022-07-29T09:53:34.636Z,54.46
2022-07-29T09:58:40.083Z,54.14
2022-07-29T10:03:54.065Z,53.85
2022-07-29T10:09:10.001Z,53.38
2022-07-29T10:14:16.689Z,54.69
2022-07-29T10:19:20.731Z,52.53
2022-07-29T10:24:25.699Z,51.73
2022-07-29T10:29:32.506Z,50.92
2022-07-29T10:34:50.848Z,50.65
2022-07-29T10:40:23.665Z,48.76
2022-07-29T10:45:31.717Z,49.45
2022-07-29T10:50:59.894Z,48.90
2022-07-29T10:56:06.332Z,49.83
2022-07-29T11:01:39.006Z,49.20
2022-07-29T11:07:10.263Z,49.98
2022-07-29T11:12:48.015Z,49.05
2022-07-29T11:18:15.194Z,49.93
2022-07-29T11:23:25.716Z,50.98
2022-07-29T11:28:31.638Z,49.59
2022-07-29T11:33:56.280Z,43.42
2022-07-29T11:39:36.587Z,44.88
2022-07-29T11:44:57.317Z,41.08
2022-07-29T11:50:04.885Z,42.38
2022-07-29T11:55:16.892Z,39.59
2022-07-29T12:00:30.841Z,37.89
2022-07-29T12:05:48.273Z,38.52
2022-07-29T12:10:55.811Z,41.37
2022-07-29T12:16:02.348Z,39.05
2022-07-29T12:21:09.357Z,36.65
2022-07-29T12:26:25.568Z,38.33
2022-07-29T12:31:41.908Z,38.26
2022-07-29T12:36:50.428Z,36.82
2022-07-29T12:41:54.323Z,35.80
2022-07-29T12:47:08.902Z,35.91
2022-07-29T12:52:33.220Z,36.85
2022-07-29T12:57:47.681Z,35.44
2022-07-29T13:02:57.715Z,34.40
2022-07-29T13:08:20.061Z,35.50
2022-07-29T13:13:26.589Z,36.24
2022-07-29T13:18:31.962Z,34.92
2022-07-29T13:23:38.145Z,37.43
2022-07-29T13:28:44.241Z,38.33
2022-07-29T13:33:48.947Z,35.94
2022-07-29T13:38:54.147Z,36.16
2022-07-29T13:43:58.022Z,35.47
2022-07-29T13:49:01.935Z,34.69
2022-07-29T13:54:07.432Z,35.64
2022-07-29T13:59:11.582Z,34.92
2022-07-29T14:04:16.567Z,34.42
2022-07-29T14:09:21.945Z,34.00
2022-07-29T14:14:26.151Z,34.54
2022-07-29T14:19:30.263Z,35.19
2022-07-29T14:24:37.046Z,34.46
2022-07-29T14:29:41.256Z,35.98
2022-07-29T14:34:45.194Z,35.33
2022-07-29T14:39:50.488Z,35.86
2022-07-29T14:44:54.930Z,35.38
2022-07-29T14:49:59.162Z,33.80
2022-07-29T14:55:06.009Z,33.84
2022-07-29T15:00:23.818Z,35.65
2022-07-29T15:05:28.320Z,35.22
2022-07-29T15:10:33.858Z,37.86
2022-07-29T15:15:38.064Z,37.40
2022-07-29T15:20:41.930Z,37.01
2022-07-29T15:25:47.307Z,36.77
2022-07-29T15:30:51.167Z,36.26
2022-07-29T15:35:54.997Z,36.82
2022-07-29T15:41:00.829Z,36.98
2022-07-29T15:46:22.461Z,36.89
2022-07-29T15:51:26.446Z,37.55
2022-07-29T15:56:31.527Z,36.53
2022-07-29T16:01:35.434Z,38.20
2022-07-29T16:06:48.016Z,41.08
2022-07-29T16:11:54.156Z,44.36
2022-07-29T16:16:58.383Z,45.93
2022-07-29T16:22:02.294Z,47.58
2022-07-29T16:27:07.785Z,50.28
2022-07-29T16:32:11.886Z,51.95
2022-07-29T16:37:16.232Z,52.87
2022-07-29T16:42:44.430Z,53.54
2022-07-29T16:47:45.112Z,55.22
2022-07-29T16:52:49.009Z,56.11
2022-07-29T16:57:54.255Z,57.23
2022-07-29T17:03:00.056Z,57.08
2022-07-29T17:08:04.004Z,58.03
2022-07-29T17:13:09.169Z,59.00
2022-07-29T17:18:13.697Z,59.73
2022-07-29T17:23:17.544Z,58.54
2022-07-29T17:28:22.850Z,59.43
2022-07-29T17:33:26.697Z,59.36
2022-07-29T17:38:30.491Z,62.29
2022-07-29T17:43:35.822Z,62.34
2022-07-29T17:48:43.462Z,63.35
2022-07-29T17:53:47.478Z,62.80
2022-07-29T17:58:53.161Z,64.94
2022-07-29T18:03:59.979Z,66.12
2022-07-29T18:09:06.789Z,66.98
2022-07-29T18:14:11.895Z,69.46
2022-07-29T18:19:16.235Z,69.49
2022-07-29T18:24:20.210Z,70.61
2022-07-29T18:29:25.531Z,70.65
2022-07-29T18:34:29.163Z,73.25
2022-07-29T18:39:32.894Z,72.31
2022-07-29T18:44:43.811Z,72.06
2022-07-29T18:49:53.099Z,73.86
2022-07-29T18:54:56.808Z,73.89
2022-07-29T19:00:02.068Z,72.41
2022-07-29T19:05:06.072Z,73.13
2022-07-29T19:10:11.332Z,73.88
2022-07-29T19:15:20.115Z,73.54
2022-07-29T19:20:24.442Z,73.38
2022-07-29T19:25:28.204Z,73.46
2022-07-29T19:30:35.053Z,72.07
2022-07-29T19:35:38.572Z,73.35
2022-07-29T19:40:42.465Z,73.06
2022-07-29T19:45:47.633Z,71.31
2022-07-29T19:50:51.465Z,72.14
2022-07-29T19:55:55.443Z,75.66
2022-07-29T20:01:00.559Z,72.67
2022-07-29T20:06:04.569Z,74.92
2022-07-29T20:11:08.311Z,76.86
2022-07-29T20:16:13.424Z,76.00
2022-07-29T20:21:18.466Z,78.41
2022-07-29T20:26:22.286Z,82.97
2022-07-29T20:31:27.741Z,84.01
2022-07-29T20:36:32.197Z,80.36
2022-07-29T20:41:36.209Z,81.50
2022-07-29T20:46:41.476Z,78.43
2022-07-29T20:51:44.942Z,79.22
2022-07-29T20:56:48.727Z,78.40
2022-07-29T21:01:55.712Z,77.61
2022-07-29T21:06:59.617Z,79.80
2022-07-29T21:12:03.470Z,80.58
2022-07-29T21:17:11.391Z,80.44
2022-07-29T21:22:15.085Z,84.04
2022-07-29T21:27:38.300Z,83.73
2022-07-29T21:32:43.822Z,80.10
2022-07-29T21:37:47.430Z,84.83
2022-07-29T21:42:51.093Z,87.62
2022-07-29T21:47:56.368Z,86.74
2022-07-29T21:53:03.215Z,82.09
2022-07-29T21:58:08.240Z,81.56
2022-07-29T22:03:13.864Z,80.74
2022-07-29T22:08:17.610Z,81.18
2022-07-29T22:13:21.560Z,82.36
2022-07-29T22:18:26.612Z,87.17
2022-07-29T22:23:30.335Z,83.74
2022-07-29T22:28:34.332Z,83.52
2022-07-29T22:33:39.528Z,82.82
2022-07-29T22:38:43.102Z,83.75
2022-07-29T22:43:46.855Z,94.75
2022-07-29T22:48:51.952Z,100.00
2022-07-29T22:53:55.797Z,100.00
2022-07-29T22:58:59.454Z,100.00
2022-07-29T23:04:04.562Z,100.00
2022-07-29T23:09:08.461Z,100.00
2022-07-29T23:14:12.048Z,100.00
2022-07-29T23:19:17.161Z,100.00
2022-07-29T23:24:20.822Z,100.00
2022-07-29T23:29:24.532Z,100.00
2022-07-29T23:34:29.557Z,100.00
2022-07-29T23:39:33.277Z,100.00
2022-07-29T23:44:36.947Z,100.00
2022-07-29T23:49:42.086Z,100.00
2022-07-29T23:54:45.699Z,100.00
2022-07-29T23:59:49.531Z,100.00
